sensor_id;sensor_type;location;lat;lon;timestamp;P1;durP1;ratioP1;P2;durP2;ratioP2
14350;SDS011;59223;54.276;10.194;2022-07-26T00:01:06;3.72;;;1.92;;
14350;SDS011;59223;54.276;10.194;2022-07-26T00:03:32;4.77;;;2.20;;
14350;SDS011;59223;54.276;10.194;2022-07-26T00:05:59;4.00;;;2.28;;
14350;SDS011;59223;54.276;10.194;2022-07-26T00:08:29;3.08;;;2.03;;
14350;SDS011;59223;54.276;10.194;2022-07-26T00:10:58;3.03;;;1.97;;
14350;SDS011;59223;54.276;10.194;2022-07-26T00:13:32;2.63;;;1.88;;
14350;SDS011;59223;54.276;10.194;2022-07-26T00:16:00;4.57;;;2.33;;
14350;SDS011;59223;54.276;10.194;2022-07-26T00:18:30;2.83;;;1.90;;
14350;SDS011;59223;54.276;10.194;2022-07-26T00:20:59;1.80;;;1.60;;
14350;SDS011;59223;54.276;10.194;2022-07-26T00:23:27;2.53;;;1.85;;
14350;SDS011;59223;54.276;10.194;2022-07-26T00:25:54;2.45;;;1.33;;
14350;SDS011;59223;54.276;10.194;2022-07-26T00:28:22;4.25;;;2.10;;
14350;SDS011;59223;54.276;10.194;2022-07-26T00:30:49;6.17;;;2.00;;
14350;SDS011;59223;54.276;10.194;2022-07-26T00:33:18;3.80;;;2.37;;
14350;SDS011;59223;54.276;10.194;2022-07-26T00:35:45;7.33;;;2.17;;
14350;SDS011;59223;54.276;10.194;2022-07-26T00:38:15;5.20;;;2.20;;
14350;SDS011;59223;54.276;10.194;2022-07-26T00:40:41;2.08;;;1.70;;
14350;SDS011;59223;54.276;10.194;2022-07-26T00:43:08;2.50;;;2.13;;
14350;SDS011;59223;54.276;10.194;2022-07-26T00:45:35;4.70;;;2.83;;
14350;SDS011;59223;54.276;10.194;2022-07-26T00:48:02;2.35;;;1.95;;
14350;SDS011;59223;54.276;10.194;2022-07-26T00:50:31;3.37;;;1.90;;
14350;SDS011;59223;54.276;10.194;2022-07-26T00:53:02;4.00;;;2.20;;
14350;SDS011;59223;54.276;10.194;2022-07-26T00:55:31;3.13;;;2.13;;
14350;SDS011;59223;54.276;10.194;2022-07-26T00:57:59;3.90;;;2.00;;
14350;SDS011;59223;54.276;10.194;2022-07-26T01:00:28;2.50;;;2.30;;
14350;SDS011;59223;54.276;10.194;2022-07-26T01:02:55;2.07;;;1.87;;
14350;SDS011;59223;54.276;10.194;2022-07-26T01:05:23;3.97;;;2.20;;
14350;SDS011;59223;54.276;10.194;2022-07-26T01:07:50;3.00;;;2.23;;
14350;SDS011;59223;54.276;10.194;2022-07-26T01:10:18;2.13;;;1.90;;
14350;SDS011;59223;54.276;10.194;2022-07-26T01:12:48;3.43;;;1.80;;
14350;SDS011;59223;54.276;10.194;2022-07-26T01:15:15;4.78;;;2.35;;
14350;SDS011;59223;54.276;10.194;2022-07-26T01:17:44;4.53;;;1.80;;
14350;SDS011;59223;54.276;10.194;2022-07-26T01:20:16;7.73;;;2.93;;
14350;SDS011;59223;54.276;10.194;2022-07-26T01:22:43;5.80;;;2.50;;
14350;SDS011;59223;54.276;10.194;2022-07-26T01:25:12;1.98;;;1.80;;
14350;SDS011;59223;54.276;10.194;2022-07-26T01:27:40;7.07;;;2.03;;
14350;SDS011;59223;54.276;10.194;2022-07-26T01:30:08;4.70;;;2.03;;
14350;SDS011;59223;54.276;10.194;2022-07-26T01:32:36;3.83;;;2.67;;
14350;SDS011;59223;54.276;10.194;2022-07-26T01:35:04;2.60;;;2.03;;
14350;SDS011;59223;54.276;10.194;2022-07-26T01:37:35;7.97;;;2.80;;
14350;SDS011;59223;54.276;10.194;2022-07-26T01:40:02;2.50;;;2.23;;
14350;SDS011;59223;54.276;10.194;2022-07-26T01:42:32;4.77;;;2.43;;
14350;SDS011;59223;54.276;10.194;2022-07-26T01:44:59;3.27;;;2.00;;
14350;SDS011;59223;54.276;10.194;2022-07-26T01:47:26;4.80;;;2.27;;
14350;SDS011;59223;54.276;10.194;2022-07-26T01:49:53;5.07;;;2.40;;
14350;SDS011;59223;54.276;10.194;2022-07-26T01:52:22;5.80;;;2.30;;
14350;SDS011;59223;54.276;10.194;2022-07-26T01:54:49;3.57;;;2.70;;
14350;SDS011;59223;54.276;10.194;2022-07-26T01:57:18;4.93;;;2.50;;
14350;SDS011;59223;54.276;10.194;2022-07-26T01:59:45;4.97;;;2.40;;
14350;SDS011;59223;54.276;10.194;2022-07-26T02:02:12;3.87;;;2.47;;
14350;SDS011;59223;54.276;10.194;2022-07-26T02:04:41;3.83;;;2.17;;
14350;SDS011;59223;54.276;10.194;2022-07-26T02:07:24;2.40;;;2.20;;
14350;SDS011;59223;54.276;10.194;2022-07-26T02:09:52;6.27;;;2.53;;
14350;SDS011;59223;54.276;10.194;2022-07-26T02:12:19;5.07;;;2.77;;
14350;SDS011;59223;54.276;10.194;2022-07-26T02:14:48;3.53;;;2.40;;
14350;SDS011;59223;54.276;10.194;2022-07-26T02:17:16;4.47;;;2.60;;
14350;SDS011;59223;54.276;10.194;2022-07-26T02:19:43;6.87;;;3.00;;
14350;SDS011;59223;54.276;10.194;2022-07-26T02:22:10;3.00;;;2.30;;
14350;SDS011;59223;54.276;10.194;2022-07-26T02:24:37;5.13;;;2.90;;
14350;SDS011;59223;54.276;10.194;2022-07-26T02:27:04;5.57;;;2.80;;
14350;SDS011;59223;54.276;10.194;2022-07-26T02:29:31;5.25;;;2.47;;
14350;SDS011;59223;54.276;10.194;2022-07-26T02:31:57;2.88;;;2.13;;
14350;SDS011;59223;54.276;10.194;2022-07-26T02:34:26;2.70;;;2.47;;
14350;SDS011;59223;54.276;10.194;2022-07-26T02:36:59;2.78;;;2.30;;
14350;SDS011;59223;54.276;10.194;2022-07-26T02:39:26;2.17;;;1.85;;
14350;SDS011;59223;54.276;10.194;2022-07-26T02:41:54;4.27;;;3.10;;
14350;SDS011;59223;54.276;10.194;2022-07-26T02:44:22;4.15;;;2.22;;
14350;SDS011;59223;54.276;10.194;2022-07-26T02:46:50;4.03;;;2.37;;
14350;SDS011;59223;54.276;10.194;2022-07-26T02:49:18;4.93;;;2.60;;
14350;SDS011;59223;54.276;10.194;2022-07-26T02:51:46;5.80;;;2.80;;
14350;SDS011;59223;54.276;10.194;2022-07-26T02:54:16;3.87;;;2.43;;
14350;SDS011;59223;54.276;10.194;2022-07-26T02:56:43;4.07;;;2.47;;
14350;SDS011;59223;54.276;10.194;2022-07-26T02:59:10;3.83;;;2.50;;
14350;SDS011;59223;54.276;10.194;2022-07-26T03:01:36;3.95;;;2.38;;
14350;SDS011;59223;54.276;10.194;2022-07-26T03:04:05;5.55;;;2.60;;
14350;SDS011;59223;54.276;10.194;2022-07-26T03:06:35;3.25;;;2.42;;
14350;SDS011;59223;54.276;10.194;2022-07-26T03:09:04;5.65;;;3.30;;
14350;SDS011;59223;54.276;10.194;2022-07-26T03:11:33;4.57;;;3.00;;
14350;SDS011;59223;54.276;10.194;2022-07-26T03:14:00;5.33;;;2.40;;
14350;SDS011;59223;54.276;10.194;2022-07-26T03:16:27;2.90;;;2.47;;
14350;SDS011;59223;54.276;10.194;2022-07-26T03:18:57;6.00;;;2.67;;
14350;SDS011;59223;54.276;10.194;2022-07-26T03:21:26;3.00;;;2.43;;
14350;SDS011;59223;54.276;10.194;2022-07-26T03:23:58;3.38;;;2.00;;
14350;SDS011;59223;54.276;10.194;2022-07-26T03:26:25;3.47;;;2.10;;
14350;SDS011;59223;54.276;10.194;2022-07-26T03:28:58;4.00;;;2.80;;
14350;SDS011;59223;54.276;10.194;2022-07-26T03:31:27;3.08;;;2.30;;
14350;SDS011;59223;54.276;10.194;2022-07-26T03:33:54;4.43;;;2.80;;
14350;SDS011;59223;54.276;10.194;2022-07-26T03:36:30;7.10;;;2.60;;
14350;SDS011;59223;54.276;10.194;2022-07-26T03:38:57;7.70;;;3.20;;
14350;SDS011;59223;54.276;10.194;2022-07-26T03:41:24;5.30;;;2.57;;
14350;SDS011;59223;54.276;10.194;2022-07-26T03:43:51;3.40;;;2.90;;
14350;SDS011;59223;54.276;10.194;2022-07-26T03:46:18;4.73;;;3.40;;
14350;SDS011;59223;54.276;10.194;2022-07-26T03:48:45;5.53;;;2.60;;
14350;SDS011;59223;54.276;10.194;2022-07-26T03:51:12;4.80;;;2.70;;
14350;SDS011;59223;54.276;10.194;2022-07-26T03:53:39;3.73;;;2.90;;
14350;SDS011;59223;54.276;10.194;2022-07-26T03:56:06;5.03;;;3.30;;
14350;SDS011;59223;54.276;10.194;2022-07-26T03:58:52;3.72;;;2.78;;
14350;SDS011;59223;54.276;10.194;2022-07-26T04:01:19;4.60;;;2.55;;
14350;SDS011;59223;54.276;10.194;2022-07-26T04:04:02;3.88;;;2.53;;
14350;SDS011;59223;54.276;10.194;2022-07-26T04:06:30;5.47;;;2.75;;
14350;SDS011;59223;54.276;10.194;2022-07-26T04:08:57;6.20;;;2.87;;
14350;SDS011;59223;54.276;10.194;2022-07-26T04:11:24;3.50;;;2.77;;
14350;SDS011;59223;54.276;10.194;2022-07-26T04:13:54;5.93;;;2.87;;
14350;SDS011;59223;54.276;10.194;2022-07-26T04:16:21;5.93;;;2.88;;
14350;SDS011;59223;54.276;10.194;2022-07-26T04:18:51;5.40;;;2.87;;
14350;SDS011;59223;54.276;10.194;2022-07-26T04:21:18;7.33;;;2.80;;
14350;SDS011;59223;54.276;10.194;2022-07-26T04:23:45;5.00;;;2.60;;
14350;SDS011;59223;54.276;10.194;2022-07-26T04:26:16;2.83;;;2.50;;
14350;SDS011;59223;54.276;10.194;2022-07-26T04:28:44;4.83;;;2.60;;
14350;SDS011;59223;54.276;10.194;2022-07-26T04:31:11;2.90;;;2.27;;
14350;SDS011;59223;54.276;10.194;2022-07-26T04:33:38;5.00;;;2.35;;
14350;SDS011;59223;54.276;10.194;2022-07-26T04:36:05;3.63;;;2.60;;
14350;SDS011;59223;54.276;10.194;2022-07-26T04:38:32;7.53;;;2.58;;
14350;SDS011;59223;54.276;10.194;2022-07-26T04:41:01;3.90;;;2.25;;
14350;SDS011;59223;54.276;10.194;2022-07-26T04:43:29;5.55;;;2.42;;
14350;SDS011;59223;54.276;10.194;2022-07-26T04:45:56;3.42;;;2.45;;
14350;SDS011;59223;54.276;10.194;2022-07-26T04:48:25;3.33;;;2.30;;
14350;SDS011;59223;54.276;10.194;2022-07-26T04:50:53;6.13;;;2.42;;
14350;SDS011;59223;54.276;10.194;2022-07-26T04:53:22;4.85;;;2.67;;
14350;SDS011;59223;54.276;10.194;2022-07-26T04:55:49;3.63;;;2.30;;
14350;SDS011;59223;54.276;10.194;2022-07-26T04:58:18;5.55;;;2.33;;
14350;SDS011;59223;54.276;10.194;2022-07-26T05:00:47;3.25;;;2.30;;
14350;SDS011;59223;54.276;10.194;2022-07-26T05:03:34;3.10;;;1.92;;
14350;SDS011;59223;54.276;10.194;2022-07-26T05:06:04;3.30;;;2.30;;
14350;SDS011;59223;54.276;10.194;2022-07-26T05:08:34;3.15;;;2.28;;
14350;SDS011;59223;54.276;10.194;2022-07-26T05:11:01;6.97;;;3.05;;
14350;SDS011;59223;54.276;10.194;2022-07-26T05:13:30;6.70;;;2.40;;
14350;SDS011;59223;54.276;10.194;2022-07-26T05:15:59;7.47;;;2.40;;
14350;SDS011;59223;54.276;10.194;2022-07-26T05:18:27;4.13;;;2.35;;
14350;SDS011;59223;54.276;10.194;2022-07-26T05:21:14;3.50;;;2.08;;
14350;SDS011;59223;54.276;10.194;2022-07-26T05:23:41;4.03;;;2.22;;
14350;SDS011;59223;54.276;10.194;2022-07-26T05:26:09;4.05;;;2.60;;
14350;SDS011;59223;54.276;10.194;2022-07-26T05:28:39;5.15;;;2.22;;
14350;SDS011;59223;54.276;10.194;2022-07-26T05:31:08;2.15;;;1.90;;
14350;SDS011;59223;54.276;10.194;2022-07-26T05:33:46;2.30;;;1.70;;
14350;SDS011;59223;54.276;10.194;2022-07-26T05:36:20;2.85;;;1.80;;
14350;SDS011;59223;54.276;10.194;2022-07-26T05:38:47;3.55;;;2.03;;
14350;SDS011;59223;54.276;10.194;2022-07-26T05:41:15;6.60;;;1.90;;
14350;SDS011;59223;54.276;10.194;2022-07-26T05:43:44;5.00;;;2.28;;
14350;SDS011;59223;54.276;10.194;2022-07-26T05:46:11;1.98;;;1.60;;
14350;SDS011;59223;54.276;10.194;2022-07-26T05:48:38;5.10;;;1.90;;
14350;SDS011;59223;54.276;10.194;2022-07-26T05:51:05;1.60;;;1.50;;
14350;SDS011;59223;54.276;10.194;2022-07-26T05:53:36;2.67;;;1.63;;
14350;SDS011;59223;54.276;10.194;2022-07-26T05:56:18;1.45;;;1.10;;
14350;SDS011;59223;54.276;10.194;2022-07-26T05:58:47;1.67;;;1.05;;
14350;SDS011;59223;54.276;10.194;2022-07-26T06:01:17;0.98;;;0.80;;
14350;SDS011;59223;54.276;10.194;2022-07-26T06:03:44;2.08;;;0.57;;
14350;SDS011;59223;54.276;10.194;2022-07-26T06:06:11;0.98;;;0.82;;
14350;SDS011;59223;54.276;10.194;2022-07-26T06:08:38;1.83;;;0.85;;
14350;SDS011;59223;54.276;10.194;2022-07-26T06:11:08;1.27;;;1.10;;
14350;SDS011;59223;54.276;10.194;2022-07-26T06:13:35;0.63;;;0.63;;
14350;SDS011;59223;54.276;10.194;2022-07-26T06:16:04;0.45;;;0.45;;
14350;SDS011;59223;54.276;10.194;2022-07-26T06:18:31;1.58;;;1.08;;
14350;SDS011;59223;54.276;10.194;2022-07-26T06:20:58;0.88;;;0.88;;
14350;SDS011;59223;54.276;10.194;2022-07-26T06:23:30;0.50;;;0.50;;
14350;SDS011;59223;54.276;10.194;2022-07-26T06:26:00;0.55;;;0.55;;
14350;SDS011;59223;54.276;10.194;2022-07-26T06:28:28;0.70;;;0.70;;
14350;SDS011;59223;54.276;10.194;2022-07-26T06:30:55;1.25;;;0.80;;
14350;SDS011;59223;54.276;10.194;2022-07-26T06:33:22;0.80;;;0.80;;
14350;SDS011;59223;54.276;10.194;2022-07-26T06:35:49;0.43;;;0.43;;
14350;SDS011;59223;54.276;10.194;2022-07-26T06:38:15;1.63;;;1.15;;
14350;SDS011;59223;54.276;10.194;2022-07-26T06:40:44;0.65;;;0.65;;
14350;SDS011;59223;54.276;10.194;2022-07-26T06:43:11;0.93;;;0.60;;
14350;SDS011;59223;54.276;10.194;2022-07-26T06:45:40;0.68;;;0.68;;
14350;SDS011;59223;54.276;10.194;2022-07-26T06:48:07;1.60;;;0.95;;
14350;SDS011;59223;54.276;10.194;2022-07-26T06:50:39;1.55;;;0.70;;
14350;SDS011;59223;54.276;10.194;2022-07-26T06:53:09;0.82;;;0.77;;
14350;SDS011;59223;54.276;10.194;2022-07-26T06:55:36;1.70;;;1.00;;
14350;SDS011;59223;54.276;10.194;2022-07-26T06:58:07;1.50;;;0.80;;
14350;SDS011;59223;54.276;10.194;2022-07-26T07:00:34;2.20;;;0.98;;
14350;SDS011;59223;54.276;10.194;2022-07-26T07:03:01;2.00;;;1.10;;
14350;SDS011;59223;54.276;10.194;2022-07-26T07:05:31;1.92;;;0.88;;
14350;SDS011;59223;54.276;10.194;2022-07-26T07:07:58;0.98;;;0.70;;
14350;SDS011;59223;54.276;10.194;2022-07-26T07:10:25;2.80;;;0.80;;
14350;SDS011;59223;54.276;10.194;2022-07-26T07:12:59;2.33;;;1.23;;
14350;SDS011;59223;54.276;10.194;2022-07-26T07:15:26;2.53;;;0.95;;
14350;SDS011;59223;54.276;10.194;2022-07-26T07:17:53;0.52;;;0.52;;
14350;SDS011;59223;54.276;10.194;2022-07-26T07:20:20;0.77;;;0.77;;
14350;SDS011;59223;54.276;10.194;2022-07-26T07:22:47;2.83;;;0.95;;
14350;SDS011;59223;54.276;10.194;2022-07-26T07:25:16;0.50;;;0.50;;
14350;SDS011;59223;54.276;10.194;2022-07-26T07:27:56;0.60;;;0.60;;
14350;SDS011;59223;54.276;10.194;2022-07-26T07:30:25;1.52;;;0.77;;
14350;SDS011;59223;54.276;10.194;2022-07-26T07:32:53;1.65;;;0.60;;
14350;SDS011;59223;54.276;10.194;2022-07-26T07:35:21;2.00;;;0.70;;
14350;SDS011;59223;54.276;10.194;2022-07-26T07:37:49;1.10;;;0.90;;
14350;SDS011;59223;54.276;10.194;2022-07-26T07:40:19;2.40;;;1.10;;
14350;SDS011;59223;54.276;10.194;2022-07-26T07:42:47;0.98;;;0.90;;
14350;SDS011;59223;54.276;10.194;2022-07-26T07:45:14;0.60;;;0.50;;
14350;SDS011;59223;54.276;10.194;2022-07-26T07:47:41;1.63;;;0.80;;
14350;SDS011;59223;54.276;10.194;2022-07-26T07:50:08;4.75;;;1.15;;
14350;SDS011;59223;54.276;10.194;2022-07-26T07:52:37;2.63;;;1.15;;
14350;SDS011;59223;54.276;10.194;2022-07-26T07:55:06;1.13;;;0.50;;
14350;SDS011;59223;54.276;10.194;2022-07-26T07:57:54;1.77;;;0.70;;
14350;SDS011;59223;54.276;10.194;2022-07-26T08:00:23;1.90;;;1.27;;
14350;SDS011;59223;54.276;10.194;2022-07-26T08:02:53;0.65;;;0.63;;
14350;SDS011;59223;54.276;10.194;2022-07-26T08:05:20;3.42;;;1.05;;
14350;SDS011;59223;54.276;10.194;2022-07-26T08:07:48;0.80;;;0.77;;
14350;SDS011;59223;54.276;10.194;2022-07-26T08:10:17;0.70;;;0.63;;
14350;SDS011;59223;54.276;10.194;2022-07-26T08:12:44;1.63;;;0.60;;
14350;SDS011;59223;54.276;10.194;2022-07-26T08:15:16;1.63;;;0.85;;
14350;SDS011;59223;54.276;10.194;2022-07-26T08:17:44;5.30;;;1.10;;
14350;SDS011;59223;54.276;10.194;2022-07-26T08:20:19;0.98;;;0.80;;
14350;SDS011;59223;54.276;10.194;2022-07-26T08:22:50;1.20;;;0.80;;
14350;SDS011;59223;54.276;10.194;2022-07-26T08:25:17;1.08;;;0.50;;
14350;SDS011;59223;54.276;10.194;2022-07-26T08:27:44;2.33;;;0.95;;
14350;SDS011;59223;54.276;10.194;2022-07-26T08:30:28;0.60;;;0.60;;
14350;SDS011;59223;54.276;10.194;2022-07-26T08:32:55;2.08;;;0.70;;
14350;SDS011;59223;54.276;10.194;2022-07-26T08:35:22;0.93;;;0.43;;
14350;SDS011;59223;54.276;10.194;2022-07-26T08:37:49;1.85;;;0.80;;
14350;SDS011;59223;54.276;10.194;2022-07-26T08:40:16;0.90;;;0.60;;
14350;SDS011;59223;54.276;10.194;2022-07-26T08:42:49;1.67;;;1.10;;
14350;SDS011;59223;54.276;10.194;2022-07-26T08:45:25;0.95;;;0.80;;
14350;SDS011;59223;54.276;10.194;2022-07-26T08:47:57;2.30;;;0.70;;
14350;SDS011;59223;54.276;10.194;2022-07-26T08:50:43;0.60;;;0.57;;
14350;SDS011;59223;54.276;10.194;2022-07-26T08:53:10;0.57;;;0.57;;
14350;SDS011;59223;54.276;10.194;2022-07-26T08:55:38;0.90;;;0.80;;
14350;SDS011;59223;54.276;10.194;2022-07-26T08:58:25;1.58;;;0.70;;
14350;SDS011;59223;54.276;10.194;2022-07-26T09:01:02;0.47;;;0.47;;
14350;SDS011;59223;54.276;10.194;2022-07-26T09:03:41;0.90;;;0.70;;
14350;SDS011;59223;54.276;10.194;2022-07-26T09:08:41;1.35;;;0.65;;
14350;SDS011;59223;54.276;10.194;2022-07-26T09:11:30;3.08;;;1.17;;
14350;SDS011;59223;54.276;10.194;2022-07-26T09:14:01;2.28;;;1.25;;
14350;SDS011;59223;54.276;10.194;2022-07-26T09:16:31;3.72;;;1.08;;
14350;SDS011;59223;54.276;10.194;2022-07-26T09:19:17;0.45;;;0.43;;
14350;SDS011;59223;54.276;10.194;2022-07-26T09:21:47;0.90;;;0.80;;
14350;SDS011;59223;54.276;10.194;2022-07-26T09:24:35;1.02;;;0.90;;
14350;SDS011;59223;54.276;10.194;2022-07-26T09:27:04;0.60;;;0.60;;
14350;SDS011;59223;54.276;10.194;2022-07-26T09:29:46;2.08;;;1.20;;
14350;SDS011;59223;54.276;10.194;2022-07-26T09:32:29;2.75;;;1.05;;
14350;SDS011;59223;54.276;10.194;2022-07-26T09:35:08;1.02;;;0.82;;
14350;SDS011;59223;54.276;10.194;2022-07-26T09:38:01;1.20;;;0.82;;
14350;SDS011;59223;54.276;10.194;2022-07-26T09:40:39;1.48;;;0.60;;
14350;SDS011;59223;54.276;10.194;2022-07-26T09:43:09;1.70;;;0.90;;
14350;SDS011;59223;54.276;10.194;2022-07-26T09:46:01;1.77;;;0.90;;
14350;SDS011;59223;54.276;10.194;2022-07-26T09:48:32;2.20;;;0.68;;
14350;SDS011;59223;54.276;10.194;2022-07-26T09:51:35;1.35;;;1.00;;
14350;SDS011;59223;54.276;10.194;2022-07-26T09:54:07;1.02;;;0.55;;
14350;SDS011;59223;54.276;10.194;2022-07-26T09:56:43;2.42;;;1.25;;
14350;SDS011;59223;54.276;10.194;2022-07-26T09:59:16;3.20;;;1.00;;
14350;SDS011;59223;54.276;10.194;2022-07-26T10:01:51;4.22;;;1.50;;
14350;SDS011;59223;54.276;10.194;2022-07-26T10:04:19;2.55;;;1.40;;
14350;SDS011;59223;54.276;10.194;2022-07-26T10:06:47;3.47;;;1.60;;
14350;SDS011;59223;54.276;10.194;2022-07-26T10:09:15;4.68;;;1.20;;
14350;SDS011;59223;54.276;10.194;2022-07-26T10:16:59;6.13;;;1.63;;
14350;SDS011;59223;54.276;10.194;2022-07-26T10:19:54;1.30;;;0.82;;
14350;SDS011;59223;54.276;10.194;2022-07-26T10:22:27;3.47;;;1.20;;
14350;SDS011;59223;54.276;10.194;2022-07-26T10:25:43;3.72;;;1.48;;
14350;SDS011;59223;54.276;10.194;2022-07-26T10:27:48;2.63;;;1.52;;
14350;SDS011;59223;54.276;10.194;2022-07-26T10:32:58;2.28;;;1.13;;
14350;SDS011;59223;54.276;10.194;2022-07-26T10:38:00;2.03;;;1.30;;
14350;SDS011;59223;54.276;10.194;2022-07-26T10:40:37;3.78;;;1.40;;
14350;SDS011;59223;54.276;10.194;2022-07-26T10:43:20;4.40;;;1.75;;
14350;SDS011;59223;54.276;10.194;2022-07-26T10:48:59;2.33;;;1.17;;
14350;SDS011;59223;54.276;10.194;2022-07-26T10:51:31;2.40;;;1.20;;
14350;SDS011;59223;54.276;10.194;2022-07-26T10:54:06;1.90;;;0.98;;
14350;SDS011;59223;54.276;10.194;2022-07-26T10:56:39;1.13;;;0.90;;
14350;SDS011;59223;54.276;10.194;2022-07-26T10:59:06;5.20;;;0.98;;
14350;SDS011;59223;54.276;10.194;2022-07-26T11:01:40;2.65;;;1.30;;
14350;SDS011;59223;54.276;10.194;2022-07-26T11:04:18;4.68;;;1.00;;
14350;SDS011;59223;54.276;10.194;2022-07-26T11:06:45;1.55;;;1.30;;
14350;SDS011;59223;54.276;10.194;2022-07-26T11:09:15;4.22;;;1.13;;
14350;SDS011;59223;54.276;10.194;2022-07-26T11:11:46;3.22;;;1.58;;
14350;SDS011;59223;54.276;10.194;2022-07-26T11:14:14;3.08;;;1.15;;
14350;SDS011;59223;54.276;10.194;2022-07-26T11:16:46;1.30;;;1.20;;
14350;SDS011;59223;54.276;10.194;2022-07-26T11:19:16;3.50;;;1.55;;
14350;SDS011;59223;54.276;10.194;2022-07-26T11:21:44;3.42;;;1.33;;
14350;SDS011;59223;54.276;10.194;2022-07-26T11:24:13;3.85;;;1.50;;
14350;SDS011;59223;54.276;10.194;2022-07-26T11:26:41;2.65;;;1.30;;
14350;SDS011;59223;54.276;10.194;2022-07-26T11:29:09;1.40;;;1.30;;
14350;SDS011;59223;54.276;10.194;2022-07-26T11:31:44;1.85;;;1.42;;
14350;SDS011;59223;54.276;10.194;2022-07-26T11:34:25;1.38;;;1.20;;
14350;SDS011;59223;54.276;10.194;2022-07-26T11:36:55;3.65;;;1.67;;
14350;SDS011;59223;54.276;10.194;2022-07-26T11:39:24;2.78;;;1.20;;
14350;SDS011;59223;54.276;10.194;2022-07-26T11:41:59;2.67;;;1.23;;
14350;SDS011;59223;54.276;10.194;2022-07-26T11:44:33;2.92;;;1.20;;
14350;SDS011;59223;54.276;10.194;2022-07-26T11:47:10;3.72;;;1.20;;
14350;SDS011;59223;54.276;10.194;2022-07-26T11:49:39;1.02;;;0.93;;
14350;SDS011;59223;54.276;10.194;2022-07-26T11:52:29;2.58;;;1.58;;
14350;SDS011;59223;54.276;10.194;2022-07-26T11:55:00;4.15;;;1.38;;
14350;SDS011;59223;54.276;10.194;2022-07-26T11:57:27;1.52;;;1.15;;
14350;SDS011;59223;54.276;10.194;2022-07-26T11:59:56;3.58;;;1.20;;
14350;SDS011;59223;54.276;10.194;2022-07-26T12:02:24;1.83;;;0.93;;
14350;SDS011;59223;54.276;10.194;2022-07-26T12:05:10;2.88;;;1.35;;
14350;SDS011;59223;54.276;10.194;2022-07-26T12:08:19;2.00;;;1.00;;
14350;SDS011;59223;54.276;10.194;2022-07-26T12:10:41;1.15;;;0.90;;
14350;SDS011;59223;54.276;10.194;2022-07-26T12:13:12;3.45;;;1.13;;
14350;SDS011;59223;54.276;10.194;2022-07-26T12:15:44;2.00;;;1.10;;
14350;SDS011;59223;54.276;10.194;2022-07-26T12:18:25;2.70;;;1.30;;
14350;SDS011;59223;54.276;10.194;2022-07-26T12:20:57;4.00;;;0.55;;
14350;SDS011;59223;54.276;10.194;2022-07-26T12:26:27;1.60;;;0.93;;
14350;SDS011;59223;54.276;10.194;2022-07-26T12:28:57;1.20;;;1.10;;
14350;SDS011;59223;54.276;10.194;2022-07-26T12:31:44;6.93;;;1.58;;
14350;SDS011;59223;54.276;10.194;2022-07-26T12:34:18;2.05;;;1.40;;
14350;SDS011;59223;54.276;10.194;2022-07-26T12:36:46;1.38;;;1.00;;
14350;SDS011;59223;54.276;10.194;2022-07-26T12:39:20;2.97;;;1.38;;
14350;SDS011;59223;54.276;10.194;2022-07-26T12:41:49;1.38;;;1.27;;
14350;SDS011;59223;54.276;10.194;2022-07-26T12:44:17;2.85;;;1.00;;
14350;SDS011;59223;54.276;10.194;2022-07-26T12:46:47;1.20;;;0.90;;
14350;SDS011;59223;54.276;10.194;2022-07-26T12:49:14;3.45;;;1.30;;
14350;SDS011;59223;54.276;10.194;2022-07-26T12:51:41;1.60;;;1.02;;
14350;SDS011;59223;54.276;10.194;2022-07-26T12:54:08;2.03;;;1.30;;
14350;SDS011;59223;54.276;10.194;2022-07-26T12:56:38;1.88;;;1.20;;
14350;SDS011;59223;54.276;10.194;2022-07-26T12:59:07;3.85;;;1.40;;
14350;SDS011;59223;54.276;10.194;2022-07-26T13:01:42;2.30;;;1.15;;
14350;SDS011;59223;54.276;10.194;2022-07-26T13:04:09;1.88;;;1.15;;
14350;SDS011;59223;54.276;10.194;2022-07-26T13:06:37;4.32;;;1.30;;
14350;SDS011;59223;54.276;10.194;2022-07-26T13:09:06;2.67;;;1.40;;
14350;SDS011;59223;54.276;10.194;2022-07-26T13:11:33;1.83;;;1.27;;
14350;SDS011;59223;54.276;10.194;2022-07-26T13:14:00;5.68;;;1.55;;
14350;SDS011;59223;54.276;10.194;2022-07-26T13:16:29;2.90;;;1.40;;
14350;SDS011;59223;54.276;10.194;2022-07-26T13:18:58;1.70;;;1.60;;
14350;SDS011;59223;54.276;10.194;2022-07-26T13:21:25;1.85;;;1.30;;
14350;SDS011;59223;54.276;10.194;2022-07-26T13:23:59;2.67;;;1.45;;
14350;SDS011;59223;54.276;10.194;2022-07-26T13:26:26;3.65;;;1.60;;
14350;SDS011;59223;54.276;10.194;2022-07-26T13:28:56;2.63;;;1.63;;
14350;SDS011;59223;54.276;10.194;2022-07-26T13:31:24;1.90;;;1.20;;
14350;SDS011;59223;54.276;10.194;2022-07-26T13:33:51;2.38;;;1.30;;
14350;SDS011;59223;54.276;10.194;2022-07-26T13:36:18;1.50;;;1.38;;
14350;SDS011;59223;54.276;10.194;2022-07-26T13:38:44;2.92;;;1.15;;
14350;SDS011;59223;54.276;10.194;2022-07-26T13:41:13;2.63;;;1.50;;
14350;SDS011;59223;54.276;10.194;2022-07-26T13:43:43;1.98;;;1.27;;
14350;SDS011;59223;54.276;10.194;2022-07-26T13:46:10;1.27;;;1.15;;
14350;SDS011;59223;54.276;10.194;2022-07-26T13:48:37;3.83;;;1.58;;
14350;SDS011;59223;54.276;10.194;2022-07-26T13:51:27;6.75;;;1.15;;
14350;SDS011;59223;54.276;10.194;2022-07-26T13:54:18;5.95;;;1.33;;
14350;SDS011;59223;54.276;10.194;2022-07-26T13:56:46;2.85;;;1.60;;
14350;SDS011;59223;54.276;10.194;2022-07-26T13:59:14;1.73;;;1.23;;
14350;SDS011;59223;54.276;10.194;2022-07-26T14:01:42;5.47;;;1.77;;
14350;SDS011;59223;54.276;10.194;2022-07-26T14:04:10;2.25;;;1.15;;
14350;SDS011;59223;54.276;10.194;2022-07-26T14:06:39;3.70;;;1.52;;
14350;SDS011;59223;54.276;10.194;2022-07-26T14:09:06;1.85;;;1.38;;
14350;SDS011;59223;54.276;10.194;2022-07-26T14:11:39;5.93;;;2.00;;
14350;SDS011;59223;54.276;10.194;2022-07-26T14:14:06;3.30;;;1.25;;
14350;SDS011;59223;54.276;10.194;2022-07-26T14:16:34;2.78;;;1.45;;
14350;SDS011;59223;54.276;10.194;2022-07-26T14:19:02;4.10;;;1.65;;
14350;SDS011;59223;54.276;10.194;2022-07-26T14:21:30;2.47;;;1.80;;
14350;SDS011;59223;54.276;10.194;2022-07-26T14:24:19;2.17;;;1.33;;
14350;SDS011;59223;54.276;10.194;2022-07-26T14:26:46;2.75;;;1.58;;
14350;SDS011;59223;54.276;10.194;2022-07-26T14:29:23;3.22;;;1.50;;
14350;SDS011;59223;54.276;10.194;2022-07-26T14:31:50;4.63;;;1.50;;
14350;SDS011;59223;54.276;10.194;2022-07-26T14:34:17;3.97;;;1.27;;
14350;SDS011;59223;54.276;10.194;2022-07-26T14:36:44;2.20;;;1.30;;
14350;SDS011;59223;54.276;10.194;2022-07-26T14:39:11;4.10;;;2.00;;
14350;SDS011;59223;54.276;10.194;2022-07-26T14:41:37;3.78;;;1.60;;
14350;SDS011;59223;54.276;10.194;2022-07-26T14:44:04;2.05;;;1.33;;
14350;SDS011;59223;54.276;10.194;2022-07-26T14:46:32;3.25;;;1.25;;
14350;SDS011;59223;54.276;10.194;2022-07-26T14:48:59;5.35;;;1.40;;
14350;SDS011;59223;54.276;10.194;2022-07-26T14:51:26;1.95;;;1.42;;
14350;SDS011;59223;54.276;10.194;2022-07-26T14:53:53;5.32;;;1.55;;
14350;SDS011;59223;54.276;10.194;2022-07-26T14:56:20;3.60;;;1.50;;
14350;SDS011;59223;54.276;10.194;2022-07-26T14:58:47;2.25;;;1.00;;
14350;SDS011;59223;54.276;10.194;2022-07-26T15:01:16;6.22;;;1.35;;
14350;SDS011;59223;54.276;10.194;2022-07-26T15:03:43;3.75;;;1.23;;
14350;SDS011;59223;54.276;10.194;2022-07-26T15:06:10;2.92;;;0.82;;
14350;SDS011;59223;54.276;10.194;2022-07-26T15:08:37;2.35;;;1.50;;
14350;SDS011;59223;54.276;10.194;2022-07-26T15:11:04;1.70;;;1.20;;